sensor_id;sensor_type;location;lat;lon;timestamp;temperature;humidity
81315;DHT22;75773;52.534;5.686;2024-03-08T00:00:32;1.90;76.80
81315;DHT22;75773;52.534;5.686;2024-03-08T00:03:01;1.90;76.80
81315;DHT22;75773;52.534;5.686;2024-03-08T00:05:33;1.90;76.80
81315;DHT22;75773;52.534;5.686;2024-03-08T00:08:07;1.80;76.80
81315;DHT22;75773;52.534;5.686;2024-03-08T00:10:37;1.80;76.80
81315;DHT22;75773;52.534;5.686;2024-03-08T00:13:07;1.80;76.90
81315;DHT22;75773;52.534;5.686;2024-03-08T00:15:36;1.70;76.90
81315;DHT22;75773;52.534;5.686;2024-03-08T00:18:07;1.70;77.00
81315;DHT22;75773;52.534;5.686;2024-03-08T00:20:40;1.60;77.00
81315;DHT22;75773;52.534;5.686;2024-03-08T00:23:10;1.50;77.10
81315;DHT22;75773;52.534;5.686;2024-03-08T00:25:41;1.50;77.20
81315;DHT22;75773;52.534;5.686;2024-03-08T00:28:11;1.50;77.20
81315;DHT22;75773;52.534;5.686;2024-03-08T00:30:41;1.50;77.10
81315;DHT22;75773;52.534;5.686;2024-03-08T00:33:11;1.50;77.10
81315;DHT22;75773;52.534;5.686;2024-03-08T00:35:43;1.50;77.00
81315;DHT22;75773;52.534;5.686;2024-03-08T00:38:13;1.50;77.00
81315;DHT22;75773;52.534;5.686;2024-03-08T00:40:45;1.50;76.90
81315;DHT22;75773;52.534;5.686;2024-03-08T00:43:14;1.50;77.00
81315;DHT22;75773;52.534;5.686;2024-03-08T00:45:44;1.40;76.90
81315;DHT22;75773;52.534;5.686;2024-03-08T00:48:13;1.50;76.90
81315;DHT22;75773;52.534;5.686;2024-03-08T00:50:45;1.50;76.80
81315;DHT22;75773;52.534;5.686;2024-03-08T00:53:15;1.40;76.80
81315;DHT22;75773;52.534;5.686;2024-03-08T00:55:44;1.40;76.80
81315;DHT22;75773;52.534;5.686;2024-03-08T00:58:17;1.40;76.80
81315;DHT22;75773;52.534;5.686;2024-03-08T01:00:46;1.40;76.80
81315;DHT22;75773;52.534;5.686;2024-03-08T01:03:16;1.40;76.90
81315;DHT22;75773;52.534;5.686;2024-03-08T01:05:49;1.40;76.90
81315;DHT22;75773;52.534;5.686;2024-03-08T01:08:20;1.30;76.90
81315;DHT22;75773;52.534;5.686;2024-03-08T01:10:49;1.30;76.90
81315;DHT22;75773;52.534;5.686;2024-03-08T01:13:21;1.30;76.80
81315;DHT22;75773;52.534;5.686;2024-03-08T01:15:51;1.20;76.80
81315;DHT22;75773;52.534;5.686;2024-03-08T01:18:20;1.20;76.80
81315;DHT22;75773;52.534;5.686;2024-03-08T01:20:52;1.20;76.80
81315;DHT22;75773;52.534;5.686;2024-03-08T01:23:22;1.20;76.80
81315;DHT22;75773;52.534;5.686;2024-03-08T01:25:51;1.20;76.80
81315;DHT22;75773;52.534;5.686;2024-03-08T01:28:23;1.20;76.70
81315;DHT22;75773;52.534;5.686;2024-03-08T01:30:54;1.10;76.80
81315;DHT22;75773;52.534;5.686;2024-03-08T01:33:26;1.10;76.80
81315;DHT22;75773;52.534;5.686;2024-03-08T01:35:59;1.10;76.80
81315;DHT22;75773;52.534;5.686;2024-03-08T01:38:30;1.10;76.80
81315;DHT22;75773;52.534;5.686;2024-03-08T01:41:00;1.10;76.80
81315;DHT22;75773;52.534;5.686;2024-03-08T01:43:30;1.10;76.80
81315;DHT22;75773;52.534;5.686;2024-03-08T01:45:59;1.00;76.90
81315;DHT22;75773;52.534;5.686;2024-03-08T01:48:29;1.00;76.90
81315;DHT22;75773;52.534;5.686;2024-03-08T01:51:03;1.00;76.90
81315;DHT22;75773;52.534;5.686;2024-03-08T01:53:32;1.00;76.90
81315;DHT22;75773;52.534;5.686;2024-03-08T01:56:02;1.00;76.90
81315;DHT22;75773;52.534;5.686;2024-03-08T01:58:32;1.00;76.90
81315;DHT22;75773;52.534;5.686;2024-03-08T02:01:02;1.00;76.90
81315;DHT22;75773;52.534;5.686;2024-03-08T02:03:32;1.00;76.90
81315;DHT22;75773;52.534;5.686;2024-03-08T02:06:04;1.00;76.90
81315;DHT22;75773;52.534;5.686;2024-03-08T02:08:36;1.00;77.00
81315;DHT22;75773;52.534;5.686;2024-03-08T02:11:06;1.00;76.90
81315;DHT22;75773;52.534;5.686;2024-03-08T02:13:35;1.00;76.90
81315;DHT22;75773;52.534;5.686;2024-03-08T02:16:05;1.00;76.90
81315;DHT22;75773;52.534;5.686;2024-03-08T02:18:34;0.90;76.90
81315;DHT22;75773;52.534;5.686;2024-03-08T02:21:08;0.90;76.90
81315;DHT22;75773;52.534;5.686;2024-03-08T02:23:37;0.90;77.00
81315;DHT22;75773;52.534;5.686;2024-03-08T02:26:06;0.80;76.90
81315;DHT22;75773;52.534;5.686;2024-03-08T02:28:36;0.80;77.00
81315;DHT22;75773;52.534;5.686;2024-03-08T02:31:05;0.80;76.90
81315;DHT22;75773;52.534;5.686;2024-03-08T02:33:35;0.80;77.00
81315;DHT22;75773;52.534;5.686;2024-03-08T02:36:07;0.80;76.90
81315;DHT22;75773;52.534;5.686;2024-03-08T02:38:38;0.80;76.90
81315;DHT22;75773;52.534;5.686;2024-03-08T02:41:08;0.80;76.90
81315;DHT22;75773;52.534;5.686;2024-03-08T02:43:38;0.80;76.90
81315;DHT22;75773;52.534;5.686;2024-03-08T02:46:07;0.80;76.90
81315;DHT22;75773;52.534;5.686;2024-03-08T02:48:37;0.80;76.80
81315;DHT22;75773;52.534;5.686;2024-03-08T02:51:09;0.80;76.90
81315;DHT22;75773;52.534;5.686;2024-03-08T02:53:39;0.80;76.90
81315;DHT22;75773;52.534;5.686;2024-03-08T02:56:09;0.80;76.90
81315;DHT22;75773;52.534;5.686;2024-03-08T02:58:42;0.80;76.80
81315;DHT22;75773;52.534;5.686;2024-03-08T03:01:14;0.80;76.90
81315;DHT22;75773;52.534;5.686;2024-03-08T03:03:46;0.80;76.90
81315;DHT22;75773;52.534;5.686;2024-03-08T03:06:18;0.80;76.90
81315;DHT22;75773;52.534;5.686;2024-03-08T03:08:48;0.80;76.90
81315;DHT22;75773;52.534;5.686;2024-03-08T03:11:17;0.80;76.90
81315;DHT22;75773;52.534;5.686;2024-03-08T03:13:47;0.80;76.90
81315;DHT22;75773;52.534;5.686;2024-03-08T03:16:19;0.80;76.90
81315;DHT22;75773;52.534;5.686;2024-03-08T03:18:49;0.80;76.90
81315;DHT22;75773;52.534;5.686;2024-03-08T03:21:20;0.80;76.90
81315;DHT22;75773;52.534;5.686;2024-03-08T03:23:50;0.70;76.90
81315;DHT22;75773;52.534;5.686;2024-03-08T03:26:19;0.70;76.90
81315;DHT22;75773;52.534;5.686;2024-03-08T03:28:48;0.70;76.90
81315;DHT22;75773;52.534;5.686;2024-03-08T03:31:18;0.60;77.00
81315;DHT22;75773;52.534;5.686;2024-03-08T03:33:50;0.60;77.00
81315;DHT22;75773;52.534;5.686;2024-03-08T03:36:22;0.60;77.00
81315;DHT22;75773;52.534;5.686;2024-03-08T03:38:51;0.60;77.00
81315;DHT22;75773;52.534;5.686;2024-03-08T03:41:30;0.60;76.90
81315;DHT22;75773;52.534;5.686;2024-03-08T03:44:00;0.60;77.00
81315;DHT22;75773;52.534;5.686;2024-03-08T03:46:30;0.60;76.90
81315;DHT22;75773;52.534;5.686;2024-03-08T03:48:59;0.60;76.90
81315;DHT22;75773;52.534;5.686;2024-03-08T03:51:32;0.60;77.00
81315;DHT22;75773;52.534;5.686;2024-03-08T03:54:01;0.60;77.00
81315;DHT22;75773;52.534;5.686;2024-03-08T03:56:31;0.60;76.90
81315;DHT22;75773;52.534;5.686;2024-03-08T03:59:00;0.60;77.00
81315;DHT22;75773;52.534;5.686;2024-03-08T04:01:29;0.60;77.00
81315;DHT22;75773;52.534;5.686;2024-03-08T04:03:59;0.60;76.90
81315;DHT22;75773;52.534;5.686;2024-03-08T04:06:28;0.60;77.00
81315;DHT22;75773;52.534;5.686;2024-03-08T04:09:00;0.60;76.90
81315;DHT22;75773;52.534;5.686;2024-03-08T04:11:30;0.60;76.90
81315;DHT22;75773;52.534;5.686;2024-03-08T04:14:00;0.60;77.00
81315;DHT22;75773;52.534;5.686;2024-03-08T04:16:30;0.60;76.90
81315;DHT22;75773;52.534;5.686;2024-03-08T04:18:59;0.60;76.90
81315;DHT22;75773;52.534;5.686;2024-03-08T04:21:30;0.60;77.00
81315;DHT22;75773;52.534;5.686;2024-03-08T04:24:02;0.50;77.00
81315;DHT22;75773;52.534;5.686;2024-03-08T04:26:32;0.50;77.00
81315;DHT22;75773;52.534;5.686;2024-03-08T04:29:01;0.50;77.00
81315;DHT22;75773;52.534;5.686;2024-03-08T04:31:31;0.50;77.00
81315;DHT22;75773;52.534;5.686;2024-03-08T04:34:00;0.40;77.00
81315;DHT22;75773;52.534;5.686;2024-03-08T04:36:31;0.40;77.00
81315;DHT22;75773;52.534;5.686;2024-03-08T04:39:03;0.40;77.00
81315;DHT22;75773;52.534;5.686;2024-03-08T04:41:35;0.40;77.00
81315;DHT22;75773;52.534;5.686;2024-03-08T04:44:05;0.40;77.00
81315;DHT22;75773;52.534;5.686;2024-03-08T04:46:34;0.40;76.90
81315;DHT22;75773;52.534;5.686;2024-03-08T04:49:04;0.50;76.90
81315;DHT22;75773;52.534;5.686;2024-03-08T04:51:33;0.50;76.90
81315;DHT22;75773;52.534;5.686;2024-03-08T04:54:06;0.50;76.80
81315;DHT22;75773;52.534;5.686;2024-03-08T04:56:36;0.50;76.80
81315;DHT22;75773;52.534;5.686;2024-03-08T04:59:05;0.50;76.80
81315;DHT22;75773;52.534;5.686;2024-03-08T05:01:35;0.50;76.80
81315;DHT22;75773;52.534;5.686;2024-03-08T05:04:05;0.50;76.90
81315;DHT22;75773;52.534;5.686;2024-03-08T05:09:09;0.40;77.00
81315;DHT22;75773;52.534;5.686;2024-03-08T05:11:43;0.50;77.00
81315;DHT22;75773;52.534;5.686;2024-03-08T05:14:13;0.50;76.90
81315;DHT22;75773;52.534;5.686;2024-03-08T05:16:46;0.50;76.90
81315;DHT22;75773;52.534;5.686;2024-03-08T05:19:16;0.50;76.90
81315;DHT22;75773;52.534;5.686;2024-03-08T05:21:46;0.50;76.80
81315;DHT22;75773;52.534;5.686;2024-03-08T05:24:19;0.50;76.90
81315;DHT22;75773;52.534;5.686;2024-03-08T05:26:48;0.50;76.80
81315;DHT22;75773;52.534;5.686;2024-03-08T05:29:18;0.50;76.80
81315;DHT22;75773;52.534;5.686;2024-03-08T05:31:48;0.50;76.80
81315;DHT22;75773;52.534;5.686;2024-03-08T05:34:18;0.50;76.80
81315;DHT22;75773;52.534;5.686;2024-03-08T05:36:48;0.50;76.80
81315;DHT22;75773;52.534;5.686;2024-03-08T05:39:22;0.60;76.90
81315;DHT22;75773;52.534;5.686;2024-03-08T05:41:51;0.50;76.80
81315;DHT22;75773;52.534;5.686;2024-03-08T05:44:21;0.50;76.80
81315;DHT22;75773;52.534;5.686;2024-03-08T05:46:54;0.50;76.90
81315;DHT22;75773;52.534;5.686;2024-03-08T05:49:24;0.50;76.90
81315;DHT22;75773;52.534;5.686;2024-03-08T05:51:54;0.50;76.80
81315;DHT22;75773;52.534;5.686;2024-03-08T05:54:26;0.50;76.90
81315;DHT22;75773;52.534;5.686;2024-03-08T05:56:55;0.50;76.80
81315;DHT22;75773;52.534;5.686;2024-03-08T05:59:25;0.60;76.70
81315;DHT22;75773;52.534;5.686;2024-03-08T06:01:54;0.60;76.70
81315;DHT22;75773;52.534;5.686;2024-03-08T06:04:24;0.60;76.70
81315;DHT22;75773;52.534;5.686;2024-03-08T06:06:53;0.60;76.70
81315;DHT22;75773;52.534;5.686;2024-03-08T06:09:27;0.60;76.60
81315;DHT22;75773;52.534;5.686;2024-03-08T06:11:56;0.60;76.60
81315;DHT22;75773;52.534;5.686;2024-03-08T06:14:25;0.70;76.60
81315;DHT22;75773;52.534;5.686;2024-03-08T06:16:55;0.70;76.50
81315;DHT22;75773;52.534;5.686;2024-03-08T06:19:24;0.70;76.60
81315;DHT22;75773;52.534;5.686;2024-03-08T06:21:53;0.70;76.50
81315;DHT22;75773;52.534;5.686;2024-03-08T06:24:22;0.80;76.50
81315;DHT22;75773;52.534;5.686;2024-03-08T06:26:54;0.70;76.50
81315;DHT22;75773;52.534;5.686;2024-03-08T06:29:23;0.80;76.50
81315;DHT22;75773;52.534;5.686;2024-03-08T06:31:53;0.80;76.50
81315;DHT22;75773;52.534;5.686;2024-03-08T06:34:22;0.80;76.50
81315;DHT22;75773;52.534;5.686;2024-03-08T06:36:52;0.90;76.30
81315;DHT22;75773;52.534;5.686;2024-03-08T06:39:27;1.00;76.20
81315;DHT22;75773;52.534;5.686;2024-03-08T06:42:00;1.00;76.10
81315;DHT22;75773;52.534;5.686;2024-03-08T06:44:31;1.10;76.10
81315;DHT22;75773;52.534;5.686;2024-03-08T06:47:01;1.10;76.10
81315;DHT22;75773;52.534;5.686;2024-03-08T06:49:32;1.10;76.00
81315;DHT22;75773;52.534;5.686;2024-03-08T06:52:01;1.20;76.00
81315;DHT22;75773;52.534;5.686;2024-03-08T06:54:31;1.20;75.90
81315;DHT22;75773;52.534;5.686;2024-03-08T06:57:04;1.30;75.90
81315;DHT22;75773;52.534;5.686;2024-03-08T06:59:34;1.40;76.00
81315;DHT22;75773;52.534;5.686;2024-03-08T07:02:04;1.70;76.00
81315;DHT22;75773;52.534;5.686;2024-03-08T07:04:35;2.40;75.50
81315;DHT22;75773;52.534;5.686;2024-03-08T07:07:05;3.30;74.30
81315;DHT22;75773;52.534;5.686;2024-03-08T07:09:35;3.90;73.00
81315;DHT22;75773;52.534;5.686;2024-03-08T07:12:08;4.50;72.30
81315;DHT22;75773;52.534;5.686;2024-03-08T07:14:39;5.10;71.70
81315;DHT22;75773;52.534;5.686;2024-03-08T07:17:14;5.60;71.20
81315;DHT22;75773;52.534;5.686;2024-03-08T07:19:43;6.10;70.80
81315;DHT22;75773;52.534;5.686;2024-03-08T07:22:13;6.50;70.40
81315;DHT22;75773;52.534;5.686;2024-03-08T07:24:43;6.90;70.20
81315;DHT22;75773;52.534;5.686;2024-03-08T07:27:36;7.00;70.00
81315;DHT22;75773;52.534;5.686;2024-03-08T07:30:06;7.40;70.00
81315;DHT22;75773;52.534;5.686;2024-03-08T07:32:36;7.60;69.40
81315;DHT22;75773;52.534;5.686;2024-03-08T07:35:07;7.60;69.60
81315;DHT22;75773;52.534;5.686;2024-03-08T07:37:37;7.80;69.60
81315;DHT22;75773;52.534;5.686;2024-03-08T07:40:08;8.00;69.30
81315;DHT22;75773;52.534;5.686;2024-03-08T07:42:42;8.10;69.00
81315;DHT22;75773;52.534;5.686;2024-03-08T07:45:12;8.20;68.80
81315;DHT22;75773;52.534;5.686;2024-03-08T07:47:45;8.30;68.60
81315;DHT22;75773;52.534;5.686;2024-03-08T07:50:14;8.60;68.50
81315;DHT22;75773;52.534;5.686;2024-03-08T07:52:45;8.90;68.10
81315;DHT22;75773;52.534;5.686;2024-03-08T07:55:15;8.90;67.80
81315;DHT22;75773;52.534;5.686;2024-03-08T07:57:50;9.00;67.60
81315;DHT22;75773;52.534;5.686;2024-03-08T08:00:19;9.20;67.40
81315;DHT22;75773;52.534;5.686;2024-03-08T08:02:52;9.40;67.20
81315;DHT22;75773;52.534;5.686;2024-03-08T08:05:24;9.70;66.70
81315;DHT22;75773;52.534;5.686;2024-03-08T08:08:01;9.70;66.30
81315;DHT22;75773;52.534;5.686;2024-03-08T08:10:32;9.70;66.50
81315;DHT22;75773;52.534;5.686;2024-03-08T08:13:04;9.80;66.40
81315;DHT22;75773;52.534;5.686;2024-03-08T08:15:39;10.00;65.70
81315;DHT22;75773;52.534;5.686;2024-03-08T08:18:11;9.80;65.80
81315;DHT22;75773;52.534;5.686;2024-03-08T08:20:40;10.00;65.80
81315;DHT22;75773;52.534;5.686;2024-03-08T08:23:10;10.00;65.50
81315;DHT22;75773;52.534;5.686;2024-03-08T08:25:40;10.20;65.30
81315;DHT22;75773;52.534;5.686;2024-03-08T08:28:11;10.30;64.90
81315;DHT22;75773;52.534;5.686;2024-03-08T08:30:47;10.30;64.70
81315;DHT22;75773;52.534;5.686;2024-03-08T08:33:17;10.30;64.50
81315;DHT22;75773;52.534;5.686;2024-03-08T08:35:47;10.40;64.50
81315;DHT22;75773;52.534;5.686;2024-03-08T08:38:20;10.50;64.20
81315;DHT22;75773;52.534;5.686;2024-03-08T08:40:49;10.70;64.00
81315;DHT22;75773;52.534;5.686;2024-03-08T08:43:21;10.80;63.70
81315;DHT22;75773;52.534;5.686;2024-03-08T08:45:53;10.90;63.60
81315;DHT22;75773;52.534;5.686;2024-03-08T08:48:23;11.10;63.20
81315;DHT22;75773;52.534;5.686;2024-03-08T08:50:52;11.40;62.70
81315;DHT22;75773;52.534;5.686;2024-03-08T08:53:21;11.50;62.70
81315;DHT22;75773;52.534;5.686;2024-03-08T08:55:51;11.50;62.40
81315;DHT22;75773;52.534;5.686;2024-03-08T08:58:23;11.50;62.40
81315;DHT22;75773;52.534;5.686;2024-03-08T09:00:55;11.40;62.50
81315;DHT22;75773;52.534;5.686;2024-03-08T09:03:25;11.40;62.60
81315;DHT22;75773;52.534;5.686;2024-03-08T09:05:56;11.40;62.50
81315;DHT22;75773;52.534;5.686;2024-03-08T09:08:28;11.30;62.40
81315;DHT22;75773;52.534;5.686;2024-03-08T09:11:00;11.00;62.70
81315;DHT22;75773;52.534;5.686;2024-03-08T09:13:33;10.90;62.30
81315;DHT22;75773;52.534;5.686;2024-03-08T09:16:03;10.80;62.60
81315;DHT22;75773;52.534;5.686;2024-03-08T09:18:33;10.90;62.10
81315;DHT22;75773;52.534;5.686;2024-03-08T09:21:02;10.70;62.10
81315;DHT22;75773;52.534;5.686;2024-03-08T09:23:36;10.70;62.20
81315;DHT22;75773;52.534;5.686;2024-03-08T09:26:06;10.70;62.00
81315;DHT22;75773;52.534;5.686;2024-03-08T09:28:50;10.60;62.00
81315;DHT22;75773;52.534;5.686;2024-03-08T09:31:20;10.50;62.20
81315;DHT22;75773;52.534;5.686;2024-03-08T09:33:50;10.40;61.90
81315;DHT22;75773;52.534;5.686;2024-03-08T09:36:19;10.10;62.00
81315;DHT22;75773;52.534;5.686;2024-03-08T09:38:49;9.90;62.40
81315;DHT22;75773;52.534;5.686;2024-03-08T09:41:19;9.70;62.50
81315;DHT22;75773;52.534;5.686;2024-03-08T09:43:51;9.70;62.50
81315;DHT22;75773;52.534;5.686;2024-03-08T09:46:22;9.70;62.70
81315;DHT22;75773;52.534;5.686;2024-03-08T09:48:54;9.80;62.70
81315;DHT22;75773;52.534;5.686;2024-03-08T09:51:28;9.90;62.20
81315;DHT22;75773;52.534;5.686;2024-03-08T09:54:01;9.50;62.30
81315;DHT22;75773;52.534;5.686;2024-03-08T09:56:35;9.20;62.70
81315;DHT22;75773;52.534;5.686;2024-03-08T09:59:07;9.20;63.20
81315;DHT22;75773;52.534;5.686;2024-03-08T10:01:49;9.20;63.40
81315;DHT22;75773;52.534;5.686;2024-03-08T10:04:22;9.20;63.20
81315;DHT22;75773;52.534;5.686;2024-03-08T10:06:58;9.20;63.30
81315;DHT22;75773;52.534;5.686;2024-03-08T10:09:29;9.10;63.30
81315;DHT22;75773;52.534;5.686;2024-03-08T10:11:58;9.00;63.40
81315;DHT22;75773;52.534;5.686;2024-03-08T10:14:30;9.00;63.50
81315;DHT22;75773;52.534;5.686;2024-03-08T10:17:00;9.20;63.50
81315;DHT22;75773;52.534;5.686;2024-03-08T10:19:29;9.20;63.30
81315;DHT22;75773;52.534;5.686;2024-03-08T10:21:59;9.30;63.30
81315;DHT22;75773;52.534;5.686;2024-03-08T10:24:31;9.40;63.50
81315;DHT22;75773;52.534;5.686;2024-03-08T10:27:01;9.40;63.20
81315;DHT22;75773;52.534;5.686;2024-03-08T10:29:36;9.40;63.20
81315;DHT22;75773;52.534;5.686;2024-03-08T10:32:10;9.40;63.30
81315;DHT22;75773;52.534;5.686;2024-03-08T10:34:44;9.40;63.20
81315;DHT22;75773;52.534;5.686;2024-03-08T10:37:21;9.40;63.30
81315;DHT22;75773;52.534;5.686;2024-03-08T10:40:02;9.50;63.20
81315;DHT22;75773;52.534;5.686;2024-03-08T10:42:47;9.50;63.20
81315;DHT22;75773;52.534;5.686;2024-03-08T10:45:31;9.60;63.20
81315;DHT22;75773;52.534;5.686;2024-03-08T10:48:12;9.70;63.00
81315;DHT22;75773;52.534;5.686;2024-03-08T10:50:49;9.70;63.00
81315;DHT22;75773;52.534;5.686;2024-03-08T10:53:23;9.80;63.20
81315;DHT22;75773;52.534;5.686;2024-03-08T10:55:53;10.00;63.10
81315;DHT22;75773;52.534;5.686;2024-03-08T10:58:27;10.10;62.80
81315;DHT22;75773;52.534;5.686;2024-03-08T11:01:00;10.00;62.90
81315;DHT22;75773;52.534;5.686;2024-03-08T11:03:44;10.00;63.00
81315;DHT22;75773;52.534;5.686;2024-03-08T11:06:15;10.00;63.20
81315;DHT22;75773;52.534;5.686;2024-03-08T11:08:47;10.00;63.30
81315;DHT22;75773;52.534;5.686;2024-03-08T11:11:26;10.00;63.20
81315;DHT22;75773;52.534;5.686;2024-03-08T11:14:04;10.10;63.10
81315;DHT22;75773;52.534;5.686;2024-03-08T11:16:44;10.00;63.10
81315;DHT22;75773;52.534;5.686;2024-03-08T11:19:24;10.00;63.30
81315;DHT22;75773;52.534;5.686;2024-03-08T11:21:57;10.00;63.50
81315;DHT22;75773;52.534;5.686;2024-03-08T11:24:27;10.30;63.00
81315;DHT22;75773;52.534;5.686;2024-03-08T11:26:57;10.30;63.10
81315;DHT22;75773;52.534;5.686;2024-03-08T11:29:38;10.30;63.20
81315;DHT22;75773;52.534;5.686;2024-03-08T11:32:12;10.30;62.80
81315;DHT22;75773;52.534;5.686;2024-03-08T11:34:46;10.10;63.00
81315;DHT22;75773;52.534;5.686;2024-03-08T11:37:17;10.10;63.20
81315;DHT22;75773;52.534;5.686;2024-03-08T11:39:47;10.10;63.10
81315;DHT22;75773;52.534;5.686;2024-03-08T11:42:18;10.00;63.10
81315;DHT22;75773;52.534;5.686;2024-03-08T11:44:50;10.00;63.30
81315;DHT22;75773;52.534;5.686;2024-03-08T11:47:22;10.10;63.40
81315;DHT22;75773;52.534;5.686;2024-03-08T11:49:52;10.10;63.40
81315;DHT22;75773;52.534;5.686;2024-03-08T11:52:25;10.00;63.30
81315;DHT22;75773;52.534;5.686;2024-03-08T11:54:55;9.80;63.70
81315;DHT22;75773;52.534;5.686;2024-03-08T11:57:27;9.60;63.90
81315;DHT22;75773;52.534;5.686;2024-03-08T11:59:59;9.60;64.20
81315;DHT22;75773;52.534;5.686;2024-03-08T12:02:36;9.60;64.40
81315;DHT22;75773;52.534;5.686;2024-03-08T12:05:08;9.70;64.40
81315;DHT22;75773;52.534;5.686;2024-03-08T12:07:42;9.60;64.30
81315;DHT22;75773;52.534;5.686;2024-03-08T12:10:17;9.60;64.40
81315;DHT22;75773;52.534;5.686;2024-03-08T12:12:49;9.60;64.40
81315;DHT22;75773;52.534;5.686;2024-03-08T12:15:19;9.50;64.40
81315;DHT22;75773;52.534;5.686;2024-03-08T12:17:52;9.50;64.60
81315;DHT22;75773;52.534;5.686;2024-03-08T12:20:23;9.60;64.40
81315;DHT22;75773;52.534;5.686;2024-03-08T12:22:56;9.60;64.50
81315;DHT22;75773;52.534;5.686;2024-03-08T12:25:32;9.60;64.50
81315;DHT22;75773;52.534;5.686;2024-03-08T12:28:19;9.70;64.40
81315;DHT22;75773;52.534;5.686;2024-03-08T12:30:49;9.70;64.30
81315;DHT22;75773;52.534;5.686;2024-03-08T12:33:22;9.70;64.30
81315;DHT22;75773;52.534;5.686;2024-03-08T12:35:52;9.70;64.40
81315;DHT22;75773;52.534;5.686;2024-03-08T12:38:28;9.80;64.40
81315;DHT22;75773;52.534;5.686;2024-03-08T12:40:58;9.80;64.20
81315;DHT22;75773;52.534;5.686;2024-03-08T12:43:28;9.90;64.10
81315;DHT22;75773;52.534;5.686;2024-03-08T12:46:00;10.00;64.00
81315;DHT22;75773;52.534;5.686;2024-03-08T12:48:37;10.00;63.90
81315;DHT22;75773;52.534;5.686;2024-03-08T12:51:07;9.90;63.90
81315;DHT22;75773;52.534;5.686;2024-03-08T12:53:36;9.90;64.00
81315;DHT22;75773;52.534;5.686;2024-03-08T12:56:07;9.90;63.70
81315;DHT22;75773;52.534;5.686;2024-03-08T12:58:37;9.90;63.80
81315;DHT22;75773;52.534;5.686;2024-03-08T13:01:07;10.00;63.60
81315;DHT22;75773;52.534;5.686;2024-03-08T13:03:39;9.90;63.40
81315;DHT22;75773;52.534;5.686;2024-03-08T13:06:10;9.90;63.50
81315;DHT22;75773;52.534;5.686;2024-03-08T13:08:39;10.00;63.40
81315;DHT22;75773;52.534;5.686;2024-03-08T13:11:10;9.90;63.40
81315;DHT22;75773;52.534;5.686;2024-03-08T13:13:41;10.00;63.20
81315;DHT22;75773;52.534;5.686;2024-03-08T13:16:10;10.00;63.20
81315;DHT22;75773;52.534;5.686;2024-03-08T13:18:43;10.00;62.90
81315;DHT22;75773;52.534;5.686;2024-03-08T13:21:15;10.00;62.70
81315;DHT22;75773;52.534;5.686;2024-03-08T13:23:46;10.00;62.40
81315;DHT22;75773;52.534;5.686;2024-03-08T13:26:16;10.00;62.30
81315;DHT22;75773;52.534;5.686;2024-03-08T13:28:46;10.00;62.30
81315;DHT22;75773;52.534;5.686;2024-03-08T13:31:19;10.10;62.00
81315;DHT22;75773;52.534;5.686;2024-03-08T13:33:51;10.10;61.80
81315;DHT22;75773;52.534;5.686;2024-03-08T13:36:24;10.10;61.80
81315;DHT22;75773;52.534;5.686;2024-03-08T13:38:57;10.00;61.70
81315;DHT22;75773;52.534;5.686;2024-03-08T13:41:27;10.00;61.70
81315;DHT22;75773;52.534;5.686;2024-03-08T13:43:56;10.00;61.60
81315;DHT22;75773;52.534;5.686;2024-03-08T13:46:26;10.00;61.70
81315;DHT22;75773;52.534;5.686;2024-03-08T13:49:04;10.10;61.60
81315;DHT22;75773;52.534;5.686;2024-03-08T13:51:36;10.10;61.50
81315;DHT22;75773;52.534;5.686;2024-03-08T13:54:05;10.10;61.50
81315;DHT22;75773;52.534;5.686;2024-03-08T13:56:36;10.10;61.50
81315;DHT22;75773;52.534;5.686;2024-03-08T13:59:05;10.10;61.40
81315;DHT22;75773;52.534;5.686;2024-03-08T14:01:35;10.10;61.10
81315;DHT22;75773;52.534;5.686;2024-03-08T14:04:12;10.00;61.00
81315;DHT22;75773;52.534;5.686;2024-03-08T14:06:41;10.00;61.10
81315;DHT22;75773;52.534;5.686;2024-03-08T14:09:14;10.00;61.20
81315;DHT22;75773;52.534;5.686;2024-03-08T14:11:47;10.00;61.10
81315;DHT22;75773;52.534;5.686;2024-03-08T14:14:20;10.00;61.00
81315;DHT22;75773;52.534;5.686;2024-03-08T14:16:50;10.00;60.90
81315;DHT22;75773;52.534;5.686;2024-03-08T14:19:24;10.00;60.90
81315;DHT22;75773;52.534;5.686;2024-03-08T14:21:53;10.00;60.80
81315;DHT22;75773;52.534;5.686;2024-03-08T14:24:23;10.00;60.70
81315;DHT22;75773;52.534;5.686;2024-03-08T14:26:52;9.90;60.60
81315;DHT22;75773;52.534;5.686;2024-03-08T14:29:22;9.80;60.60
81315;DHT22;75773;52.534;5.686;2024-03-08T14:31:54;9.80;60.50
81315;DHT22;75773;52.534;5.686;2024-03-08T14:34:27;9.80;60.70
81315;DHT22;75773;52.534;5.686;2024-03-08T14:36:56;9.90;60.60
81315;DHT22;75773;52.534;5.686;2024-03-08T14:39:26;10.00;60.60
81315;DHT22;75773;52.534;5.686;2024-03-08T14:41:55;10.00;60.50
81315;DHT22;75773;52.534;5.686;2024-03-08T14:44:26;9.90;60.50
81315;DHT22;75773;52.534;5.686;2024-03-08T14:46:56;10.00;60.50
81315;DHT22;75773;52.534;5.686;2024-03-08T14:49:28;10.00;60.70
81315;DHT22;75773;52.534;5.686;2024-03-08T14:51:58;10.00;60.50
81315;DHT22;75773;52.534;5.686;2024-03-08T14:54:27;10.00;60.60
81315;DHT22;75773;52.534;5.686;2024-03-08T14:56:57;10.00;60.60
81315;DHT22;75773;52.534;5.686;2024-03-08T14:59:26;10.00;60.50
81315;DHT22;75773;52.534;5.686;2024-03-08T15:01:57;10.00;60.50
81315;DHT22;75773;52.534;5.686;2024-03-08T15:04:30;10.00;60.60
81315;DHT22;75773;52.534;5.686;2024-03-08T15:07:02;9.90;60.50
81315;DHT22;75773;52.534;5.686;2024-03-08T15:09:32;9.80;60.60
81315;DHT22;75773;52.534;5.686;2024-03-08T15:12:06;9.80;60.70
81315;DHT22;75773;52.534;5.686;2024-03-08T15:14:40;9.80;60.70
81315;DHT22;75773;52.534;5.686;2024-03-08T15:17:10;9.80;60.70
81315;DHT22;75773;52.534;5.686;2024-03-08T15:19:50;9.80;60.70
81315;DHT22;75773;52.534;5.686;2024-03-08T15:22:24;9.80;60.70
81315;DHT22;75773;52.534;5.686;2024-03-08T15:24:54;9.80;60.60
81315;DHT22;75773;52.534;5.686;2024-03-08T15:27:24;9.70;60.70
81315;DHT22;75773;52.534;5.686;2024-03-08T15:29:55;9.60;60.70
81315;DHT22;75773;52.534;5.686;2024-03-08T15:32:25;9.60;60.80
81315;DHT22;75773;52.534;5.686;2024-03-08T15:35:01;9.60;60.90
81315;DHT22;75773;52.534;5.686;2024-03-08T15:37:31;9.60;61.00
81315;DHT22;75773;52.534;5.686;2024-03-08T15:40:00;9.60;61.10
81315;DHT22;75773;52.534;5.686;2024-03-08T15:42:32;9.50;61.10
81315;DHT22;75773;52.534;5.686;2024-03-08T15:45:01;9.40;61.10
81315;DHT22;75773;52.534;5.686;2024-03-08T15:47:35;9.40;61.30
81315;DHT22;75773;52.534;5.686;2024-03-08T15:50:09;9.40;61.30
81315;DHT22;75773;52.534;5.686;2024-03-08T15:52:39;9.30;61.40
81315;DHT22;75773;52.534;5.686;2024-03-08T15:55:15;9.20;61.40
81315;DHT22;75773;52.534;5.686;2024-03-08T15:57:49;9.20;61.50
81315;DHT22;75773;52.534;5.686;2024-03-08T16:00:20;9.20;61.60
81315;DHT22;75773;52.534;5.686;2024-03-08T16:03:00;9.20;61.50
81315;DHT22;75773;52.534;5.686;2024-03-08T16:05:35;9.10;61.70
81315;DHT22;75773;52.534;5.686;2024-03-08T16:08:07;9.00;61.70
81315;DHT22;75773;52.534;5.686;2024-03-08T16:10:42;9.00;61.80